sensor_id;sensor_type;location;lat;lon;timestamp;P1;durP1;ratioP1;P2;durP2;ratioP2
6436;SDS011;3251;53.550;9.918;2023-07-02T00:01:12;11.80;;;2.40;;
6436;SDS011;3251;53.550;9.918;2023-07-02T00:03:38;15.93;;;2.20;;
6436;SDS011;3251;53.550;9.918;2023-07-02T00:06:05;3.60;;;2.17;;
6436;SDS011;3251;53.550;9.918;2023-07-02T00:08:31;7.20;;;2.10;;
6436;SDS011;3251;53.550;9.918;2023-07-02T00:10:57;4.10;;;2.10;;
6436;SDS011;3251;53.550;9.918;2023-07-02T00:13:23;6.53;;;1.93;;
6436;SDS011;3251;53.550;9.918;2023-07-02T00:15:49;8.13;;;3.77;;
6436;SDS011;3251;53.550;9.918;2023-07-02T00:18:15;3.70;;;2.43;;
6436;SDS011;3251;53.550;9.918;2023-07-02T00:20:42;7.33;;;2.20;;
6436;SDS011;3251;53.550;9.918;2023-07-02T00:23:08;5.50;;;2.67;;
6436;SDS011;3251;53.550;9.918;2023-07-02T00:25:38;9.50;;;3.40;;
6436;SDS011;3251;53.550;9.918;2023-07-02T00:28:04;4.10;;;2.43;;
6436;SDS011;3251;53.550;9.918;2023-07-02T00:30:30;12.90;;;2.97;;
6436;SDS011;3251;53.550;9.918;2023-07-02T00:32:56;5.83;;;2.80;;
6436;SDS011;3251;53.550;9.918;2023-07-02T00:35:23;8.00;;;2.43;;
6436;SDS011;3251;53.550;9.918;2023-07-02T00:37:49;4.40;;;2.57;;
6436;SDS011;3251;53.550;9.918;2023-07-02T00:40:15;2.77;;;2.67;;
6436;SDS011;3251;53.550;9.918;2023-07-02T00:42:41;6.20;;;2.37;;
6436;SDS011;3251;53.550;9.918;2023-07-02T00:45:07;7.50;;;2.30;;
6436;SDS011;3251;53.550;9.918;2023-07-02T00:47:34;4.10;;;1.90;;
6436;SDS011;3251;53.550;9.918;2023-07-02T00:50:01;10.63;;;3.37;;
6436;SDS011;3251;53.550;9.918;2023-07-02T00:52:28;2.77;;;2.53;;
6436;SDS011;3251;53.550;9.918;2023-07-02T06:37:53;23.40;;;7.53;;
6436;SDS011;3251;53.550;9.918;2023-07-02T06:40:20;21.00;;;6.80;;
6436;SDS011;3251;53.550;9.918;2023-07-02T06:42:47;29.47;;;7.30;;
6436;SDS011;3251;53.550;9.918;2023-07-02T06:45:13;20.27;;;6.50;;
6436;SDS011;3251;53.550;9.918;2023-07-02T06:47:40;22.00;;;7.37;;
6436;SDS011;3251;53.550;9.918;2023-07-02T06:50:06;20.73;;;8.17;;
6436;SDS011;3251;53.550;9.918;2023-07-02T06:52:32;23.10;;;7.50;;
6436;SDS011;3251;53.550;9.918;2023-07-02T06:54:58;20.23;;;7.30;;
6436;SDS011;3251;53.550;9.918;2023-07-02T06:57:24;29.23;;;7.80;;
6436;SDS011;3251;53.550;9.918;2023-07-02T06:59:50;23.03;;;9.10;;
6436;SDS011;3251;53.550;9.918;2023-07-02T07:02:16;27.50;;;8.50;;
6436;SDS011;3251;53.550;9.918;2023-07-02T07:04:42;19.10;;;7.80;;
6436;SDS011;3251;53.550;9.918;2023-07-02T07:07:08;15.73;;;7.73;;
6436;SDS011;3251;53.550;9.918;2023-07-02T07:09:35;26.30;;;8.87;;
6436;SDS011;3251;53.550;9.918;2023-07-02T07:12:01;24.67;;;8.10;;
6436;SDS011;3251;53.550;9.918;2023-07-02T07:14:27;27.87;;;7.77;;
6436;SDS011;3251;53.550;9.918;2023-07-02T07:16:53;23.33;;;8.30;;
6436;SDS011;3251;53.550;9.918;2023-07-02T07:19:19;30.43;;;9.23;;
6436;SDS011;3251;53.550;9.918;2023-07-02T07:21:45;34.17;;;9.13;;
6436;SDS011;3251;53.550;9.918;2023-07-02T07:24:11;26.33;;;7.20;;
6436;SDS011;3251;53.550;9.918;2023-07-02T07:26:37;27.03;;;8.93;;
6436;SDS011;3251;53.550;9.918;2023-07-02T07:29:04;37.30;;;7.57;;
6436;SDS011;3251;53.550;9.918;2023-07-02T07:31:30;23.27;;;8.67;;
6436;SDS011;3251;53.550;9.918;2023-07-02T07:33:56;26.20;;;7.80;;
6436;SDS011;3251;53.550;9.918;2023-07-02T07:36:22;26.77;;;10.10;;
6436;SDS011;3251;53.550;9.918;2023-07-02T07:38:48;28.77;;;8.20;;
6436;SDS011;3251;53.550;9.918;2023-07-02T07:41:14;23.67;;;7.53;;
6436;SDS011;3251;53.550;9.918;2023-07-02T07:43:40;23.70;;;7.70;;
6436;SDS011;3251;53.550;9.918;2023-07-02T07:46:06;18.23;;;7.50;;
6436;SDS011;3251;53.550;9.918;2023-07-02T07:48:33;22.90;;;8.73;;
6436;SDS011;3251;53.550;9.918;2023-07-02T07:50:59;29.30;;;6.80;;
6436;SDS011;3251;53.550;9.918;2023-07-02T07:53:25;16.20;;;7.40;;
6436;SDS011;3251;53.550;9.918;2023-07-02T07:55:51;26.07;;;7.43;;
6436;SDS011;3251;53.550;9.918;2023-07-02T07:58:17;16.97;;;6.80;;
6436;SDS011;3251;53.550;9.918;2023-07-02T08:00:43;18.43;;;7.80;;
6436;SDS011;3251;53.550;9.918;2023-07-02T08:03:10;20.07;;;7.33;;
6436;SDS011;3251;53.550;9.918;2023-07-02T08:05:36;16.20;;;6.53;;
6436;SDS011;3251;53.550;9.918;2023-07-02T08:08:02;14.53;;;7.00;;
6436;SDS011;3251;53.550;9.918;2023-07-02T08:10:28;18.00;;;8.43;;
6436;SDS011;3251;53.550;9.918;2023-07-02T08:12:54;18.33;;;7.10;;
6436;SDS011;3251;53.550;9.918;2023-07-02T08:15:21;18.60;;;6.83;;
6436;SDS011;3251;53.550;9.918;2023-07-02T08:17:48;12.27;;;5.80;;
6436;SDS011;3251;53.550;9.918;2023-07-02T08:20:14;15.17;;;7.23;;
6436;SDS011;3251;53.550;9.918;2023-07-02T08:22:42;15.73;;;5.53;;
6436;SDS011;3251;53.550;9.918;2023-07-02T08:25:08;9.20;;;6.40;;
6436;SDS011;3251;53.550;9.918;2023-07-02T08:27:34;12.17;;;5.80;;
6436;SDS011;3251;53.550;9.918;2023-07-02T08:30:00;18.20;;;6.53;;
6436;SDS011;3251;53.550;9.918;2023-07-02T08:32:26;15.13;;;5.70;;
6436;SDS011;3251;53.550;9.918;2023-07-02T08:34:53;10.13;;;4.90;;
6436;SDS011;3251;53.550;9.918;2023-07-02T08:37:20;20.50;;;5.50;;
6436;SDS011;3251;53.550;9.918;2023-07-02T08:39:48;16.57;;;5.87;;
6436;SDS011;3251;53.550;9.918;2023-07-02T08:42:15;11.63;;;4.80;;
6436;SDS011;3251;53.550;9.918;2023-07-02T08:44:41;9.50;;;6.00;;
6436;SDS011;3251;53.550;9.918;2023-07-02T08:47:08;7.93;;;4.57;;
6436;SDS011;3251;53.550;9.918;2023-07-02T08:49:34;6.50;;;4.57;;
6436;SDS011;3251;53.550;9.918;2023-07-02T08:52:00;11.73;;;5.00;;
6436;SDS011;3251;53.550;9.918;2023-07-02T08:54:27;13.73;;;5.87;;
6436;SDS011;3251;53.550;9.918;2023-07-02T08:56:53;7.53;;;4.30;;
6436;SDS011;3251;53.550;9.918;2023-07-02T08:59:19;5.90;;;3.70;;
6436;SDS011;3251;53.550;9.918;2023-07-02T09:01:46;11.50;;;5.07;;
6436;SDS011;3251;53.550;9.918;2023-07-02T09:06:45;10.13;;;4.37;;
6436;SDS011;3251;53.550;9.918;2023-07-02T09:09:11;20.53;;;5.43;;
6436;SDS011;3251;53.550;9.918;2023-07-02T09:11:46;15.43;;;4.90;;
6436;SDS011;3251;53.550;9.918;2023-07-02T09:14:23;6.53;;;4.00;;
6436;SDS011;3251;53.550;9.918;2023-07-02T09:16:50;15.80;;;5.30;;
6436;SDS011;3251;53.550;9.918;2023-07-02T09:19:26;12.67;;;5.63;;
6436;SDS011;3251;53.550;9.918;2023-07-02T09:21:52;11.33;;;4.67;;
6436;SDS011;3251;53.550;9.918;2023-07-02T09:24:22;14.63;;;4.90;;
6436;SDS011;3251;53.550;9.918;2023-07-02T09:26:58;22.53;;;5.40;;
6436;SDS011;3251;53.550;9.918;2023-07-02T09:29:26;15.17;;;4.50;;
6436;SDS011;3251;53.550;9.918;2023-07-02T09:31:53;14.97;;;5.03;;
6436;SDS011;3251;53.550;9.918;2023-07-02T09:34:20;15.70;;;4.90;;
6436;SDS011;3251;53.550;9.918;2023-07-02T09:36:52;10.83;;;5.23;;
6436;SDS011;3251;53.550;9.918;2023-07-02T09:39:19;15.73;;;5.73;;
6436;SDS011;3251;53.550;9.918;2023-07-02T09:41:48;17.53;;;5.00;;
6436;SDS011;3251;53.550;9.918;2023-07-02T09:44:15;17.80;;;5.37;;
6436;SDS011;3251;53.550;9.918;2023-07-02T09:46:44;9.80;;;5.07;;
6436;SDS011;3251;53.550;9.918;2023-07-02T09:49:12;11.30;;;5.10;;
6436;SDS011;3251;53.550;9.918;2023-07-02T09:51:40;12.70;;;4.53;;
6436;SDS011;3251;53.550;9.918;2023-07-02T09:54:07;13.83;;;4.97;;
6436;SDS011;3251;53.550;9.918;2023-07-02T09:56:33;13.67;;;5.50;;
6436;SDS011;3251;53.550;9.918;2023-07-02T09:59:00;11.33;;;4.60;;
6436;SDS011;3251;53.550;9.918;2023-07-02T10:01:26;11.50;;;4.60;;
6436;SDS011;3251;53.550;9.918;2023-07-02T10:03:52;14.90;;;4.03;;
6436;SDS011;3251;53.550;9.918;2023-07-02T10:06:18;6.23;;;3.77;;
6436;SDS011;3251;53.550;9.918;2023-07-02T10:08:54;13.97;;;4.13;;
6436;SDS011;3251;53.550;9.918;2023-07-02T10:11:20;11.47;;;4.30;;
6436;SDS011;3251;53.550;9.918;2023-07-02T10:13:56;7.40;;;4.20;;
6436;SDS011;3251;53.550;9.918;2023-07-02T10:16:23;15.60;;;4.40;;
6436;SDS011;3251;53.550;9.918;2023-07-02T10:18:52;9.53;;;5.23;;
6436;SDS011;3251;53.550;9.918;2023-07-02T10:21:18;13.00;;;4.47;;
6436;SDS011;3251;53.550;9.918;2023-07-02T10:23:44;10.00;;;4.30;;
6436;SDS011;3251;53.550;9.918;2023-07-02T10:26:14;11.57;;;3.90;;
6436;SDS011;3251;53.550;9.918;2023-07-02T10:28:41;12.20;;;5.00;;
6436;SDS011;3251;53.550;9.918;2023-07-02T10:31:20;8.40;;;4.07;;
6436;SDS011;3251;53.550;9.918;2023-07-02T10:33:46;9.50;;;3.70;;
6436;SDS011;3251;53.550;9.918;2023-07-02T10:36:22;10.37;;;4.37;;
6436;SDS011;3251;53.550;9.918;2023-07-02T10:38:49;7.53;;;4.60;;
6436;SDS011;3251;53.550;9.918;2023-07-02T10:41:28;11.80;;;4.90;;
6436;SDS011;3251;53.550;9.918;2023-07-02T10:44:05;9.90;;;4.37;;
6436;SDS011;3251;53.550;9.918;2023-07-02T10:46:31;7.50;;;3.60;;
6436;SDS011;3251;53.550;9.918;2023-07-02T10:51:39;8.53;;;3.37;;
6436;SDS011;3251;53.550;9.918;2023-07-02T10:54:06;11.03;;;3.70;;
6436;SDS011;3251;53.550;9.918;2023-07-02T10:56:32;8.67;;;3.93;;
6436;SDS011;3251;53.550;9.918;2023-07-02T10:58:58;7.37;;;3.50;;
6436;SDS011;3251;53.550;9.918;2023-07-02T11:01:25;6.80;;;3.60;;
6436;SDS011;3251;53.550;9.918;2023-07-02T11:06:25;12.90;;;2.83;;
6436;SDS011;3251;53.550;9.918;2023-07-02T11:08:51;19.47;;;3.37;;
6436;SDS011;3251;53.550;9.918;2023-07-02T11:11:17;17.07;;;3.77;;
6436;SDS011;3251;53.550;9.918;2023-07-02T11:13:44;14.00;;;3.40;;
6436;SDS011;3251;53.550;9.918;2023-07-02T11:18:44;15.07;;;3.07;;
6436;SDS011;3251;53.550;9.918;2023-07-02T11:21:10;9.03;;;2.97;;
6436;SDS011;3251;53.550;9.918;2023-07-02T11:23:36;13.03;;;3.50;;
6436;SDS011;3251;53.550;9.918;2023-07-02T11:26:02;7.40;;;3.60;;
6436;SDS011;3251;53.550;9.918;2023-07-02T11:28:29;6.10;;;3.47;;
6436;SDS011;3251;53.550;9.918;2023-07-02T11:30:56;4.77;;;3.33;;
6436;SDS011;3251;53.550;9.918;2023-07-02T11:33:35;5.00;;;3.00;;
6436;SDS011;3251;53.550;9.918;2023-07-02T11:36:02;6.40;;;2.50;;
6436;SDS011;3251;53.550;9.918;2023-07-02T11:38:28;12.60;;;2.60;;
6436;SDS011;3251;53.550;9.918;2023-07-02T11:40:54;11.50;;;2.70;;
6436;SDS011;3251;53.550;9.918;2023-07-02T11:43:20;2.83;;;2.20;;
6436;SDS011;3251;53.550;9.918;2023-07-02T11:45:46;4.33;;;2.63;;
6436;SDS011;3251;53.550;9.918;2023-07-02T11:48:12;12.83;;;3.00;;
6436;SDS011;3251;53.550;9.918;2023-07-02T11:50:38;6.03;;;2.40;;
6436;SDS011;3251;53.550;9.918;2023-07-02T11:53:04;9.40;;;2.60;;
6436;SDS011;3251;53.550;9.918;2023-07-02T11:55:30;6.20;;;2.03;;
6436;SDS011;3251;53.550;9.918;2023-07-02T11:57:56;7.93;;;2.33;;
6436;SDS011;3251;53.550;9.918;2023-07-02T12:00:22;5.00;;;2.30;;
6436;SDS011;3251;53.550;9.918;2023-07-02T12:02:49;5.23;;;2.10;;
6436;SDS011;3251;53.550;9.918;2023-07-02T12:05:15;16.10;;;2.40;;
6436;SDS011;3251;53.550;9.918;2023-07-02T12:07:41;9.10;;;2.20;;
6436;SDS011;3251;53.550;9.918;2023-07-02T12:10:07;7.60;;;2.40;;
6436;SDS011;3251;53.550;9.918;2023-07-02T12:12:33;5.37;;;2.03;;
6436;SDS011;3251;53.550;9.918;2023-07-02T12:14:59;3.00;;;1.50;;
6436;SDS011;3251;53.550;9.918;2023-07-02T12:17:26;7.47;;;2.70;;
6436;SDS011;3251;53.550;9.918;2023-07-02T12:19:52;7.40;;;2.70;;
6436;SDS011;3251;53.550;9.918;2023-07-02T12:22:18;10.47;;;2.33;;
6436;SDS011;3251;53.550;9.918;2023-07-02T12:24:46;10.77;;;2.73;;
6436;SDS011;3251;53.550;9.918;2023-07-02T12:27:15;4.47;;;2.70;;
6436;SDS011;3251;53.550;9.918;2023-07-02T12:29:41;5.37;;;2.50;;
6436;SDS011;3251;53.550;9.918;2023-07-02T12:32:07;16.37;;;2.47;;
6436;SDS011;3251;53.550;9.918;2023-07-02T12:34:34;11.40;;;2.60;;
6436;SDS011;3251;53.550;9.918;2023-07-02T12:37:00;13.60;;;2.20;;
6436;SDS011;3251;53.550;9.918;2023-07-02T12:39:26;3.73;;;2.53;;
6436;SDS011;3251;53.550;9.918;2023-07-02T12:41:52;11.23;;;2.60;;
6436;SDS011;3251;53.550;9.918;2023-07-02T12:44:18;10.10;;;2.97;;
6436;SDS011;3251;53.550;9.918;2023-07-02T12:46:44;4.30;;;2.23;;
6436;SDS011;3251;53.550;9.918;2023-07-02T12:49:10;5.63;;;2.10;;
6436;SDS011;3251;53.550;9.918;2023-07-02T12:51:36;14.37;;;2.83;;
6436;SDS011;3251;53.550;9.918;2023-07-02T12:54:03;4.40;;;2.07;;
6436;SDS011;3251;53.550;9.918;2023-07-02T12:56:29;12.37;;;2.33;;
6436;SDS011;3251;53.550;9.918;2023-07-02T12:58:55;13.07;;;2.70;;
6436;SDS011;3251;53.550;9.918;2023-07-02T13:01:21;6.40;;;1.73;;
6436;SDS011;3251;53.550;9.918;2023-07-02T13:03:49;9.70;;;1.90;;
6436;SDS011;3251;53.550;9.918;2023-07-02T13:06:15;6.47;;;2.07;;
6436;SDS011;3251;53.550;9.918;2023-07-02T13:08:41;13.77;;;2.40;;
6436;SDS011;3251;53.550;9.918;2023-07-02T13:11:07;6.07;;;2.30;;
6436;SDS011;3251;53.550;9.918;2023-07-02T13:13:34;8.53;;;2.17;;
6436;SDS011;3251;53.550;9.918;2023-07-02T13:16:03;6.40;;;1.73;;
6436;SDS011;3251;53.550;9.918;2023-07-02T13:18:30;6.90;;;4.20;;
6436;SDS011;3251;53.550;9.918;2023-07-02T13:20:56;8.73;;;3.23;;
6436;SDS011;3251;53.550;9.918;2023-07-02T13:23:22;3.80;;;1.93;;
6436;SDS011;3251;53.550;9.918;2023-07-02T13:25:48;1.90;;;1.40;;
6436;SDS011;3251;53.550;9.918;2023-07-02T13:28:14;8.13;;;2.17;;
6436;SDS011;3251;53.550;9.918;2023-07-02T13:30:41;12.53;;;2.70;;
6436;SDS011;3251;53.550;9.918;2023-07-02T13:33:07;15.93;;;6.43;;
6436;SDS011;3251;53.550;9.918;2023-07-02T13:35:33;31.07;;;10.30;;
6436;SDS011;3251;53.550;9.918;2023-07-02T13:38:02;68.37;;;19.87;;
6436;SDS011;3251;53.550;9.918;2023-07-02T13:40:30;42.77;;;13.23;;
6436;SDS011;3251;53.550;9.918;2023-07-02T13:42:56;25.13;;;8.13;;
6436;SDS011;3251;53.550;9.918;2023-07-02T13:45:22;35.70;;;12.00;;
6436;SDS011;3251;53.550;9.918;2023-07-02T13:47:48;13.40;;;4.53;;
6436;SDS011;3251;53.550;9.918;2023-07-02T13:50:14;30.33;;;8.90;;
6436;SDS011;3251;53.550;9.918;2023-07-02T13:52:40;4.50;;;2.10;;
6436;SDS011;3251;53.550;9.918;2023-07-02T13:55:06;7.47;;;3.20;;
6436;SDS011;3251;53.550;9.918;2023-07-02T13:57:33;18.70;;;6.70;;
6436;SDS011;3251;53.550;9.918;2023-07-02T13:59:59;22.63;;;8.17;;
6436;SDS011;3251;53.550;9.918;2023-07-02T14:02:25;14.63;;;4.23;;
6436;SDS011;3251;53.550;9.918;2023-07-02T14:04:51;9.27;;;3.33;;
6436;SDS011;3251;53.550;9.918;2023-07-02T14:07:17;8.03;;;2.87;;
6436;SDS011;3251;53.550;9.918;2023-07-02T14:09:43;10.80;;;3.47;;
6436;SDS011;3251;53.550;9.918;2023-07-02T14:12:10;9.33;;;3.17;;
6436;SDS011;3251;53.550;9.918;2023-07-02T14:14:37;6.37;;;2.83;;
6436;SDS011;3251;53.550;9.918;2023-07-02T14:17:03;5.23;;;2.53;;
6436;SDS011;3251;53.550;9.918;2023-07-02T14:19:29;7.47;;;2.63;;
6436;SDS011;3251;53.550;9.918;2023-07-02T14:21:55;14.23;;;3.07;;
6436;SDS011;3251;53.550;9.918;2023-07-02T14:24:21;4.53;;;2.57;;
6436;SDS011;3251;53.550;9.918;2023-07-02T14:26:47;5.53;;;2.20;;
6436;SDS011;3251;53.550;9.918;2023-07-02T14:29:13;5.77;;;2.30;;
6436;SDS011;3251;53.550;9.918;2023-07-02T14:31:40;5.10;;;1.83;;
6436;SDS011;3251;53.550;9.918;2023-07-02T14:34:06;4.20;;;1.47;;
6436;SDS011;3251;53.550;9.918;2023-07-02T14:36:32;18.27;;;3.97;;
6436;SDS011;3251;53.550;9.918;2023-07-02T14:38:58;4.83;;;1.73;;
6436;SDS011;3251;53.550;9.918;2023-07-02T14:41:24;12.17;;;2.17;;
6436;SDS011;3251;53.550;9.918;2023-07-02T14:43:52;13.30;;;2.20;;
6436;SDS011;3251;53.550;9.918;2023-07-02T14:46:18;13.33;;;3.77;;
6436;SDS011;3251;53.550;9.918;2023-07-02T14:48:44;4.10;;;2.27;;
6436;SDS011;3251;53.550;9.918;2023-07-02T14:51:10;9.33;;;2.50;;
6436;SDS011;3251;53.550;9.918;2023-07-02T14:53:37;5.00;;;2.63;;
6436;SDS011;3251;53.550;9.918;2023-07-02T14:56:03;16.87;;;3.20;;
6436;SDS011;3251;53.550;9.918;2023-07-02T14:58:29;6.60;;;2.70;;
6436;SDS011;3251;53.550;9.918;2023-07-02T15:00:57;3.97;;;2.57;;
6436;SDS011;3251;53.550;9.918;2023-07-02T15:03:23;5.77;;;3.10;;
6436;SDS011;3251;53.550;9.918;2023-07-02T15:05:50;14.87;;;3.20;;
6436;SDS011;3251;53.550;9.918;2023-07-02T15:08:16;9.53;;;3.93;;
6436;SDS011;3251;53.550;9.918;2023-07-02T15:10:46;5.60;;;3.13;;
6436;SDS011;3251;53.550;9.918;2023-07-02T15:13:13;8.63;;;3.37;;
6436;SDS011;3251;53.550;9.918;2023-07-02T15:15:39;8.30;;;2.80;;
6436;SDS011;3251;53.550;9.918;2023-07-02T15:18:06;12.17;;;3.17;;
6436;SDS011;3251;53.550;9.918;2023-07-02T15:20:35;7.20;;;2.20;;
6436;SDS011;3251;53.550;9.918;2023-07-02T15:23:01;16.23;;;2.57;;
6436;SDS011;3251;53.550;9.918;2023-07-02T15:25:29;11.70;;;2.43;;
6436;SDS011;3251;53.550;9.918;2023-07-02T15:27:56;4.73;;;3.03;;
6436;SDS011;3251;53.550;9.918;2023-07-02T15:30:22;8.93;;;3.10;;
6436;SDS011;3251;53.550;9.918;2023-07-02T15:32:48;10.80;;;2.00;;
6436;SDS011;3251;53.550;9.918;2023-07-02T15:35:14;12.77;;;2.60;;
6436;SDS011;3251;53.550;9.918;2023-07-02T15:37:40;10.80;;;2.20;;
6436;SDS011;3251;53.550;9.918;2023-07-02T15:40:07;11.70;;;2.47;;
6436;SDS011;3251;53.550;9.918;2023-07-02T15:42:33;5.47;;;2.37;;
6436;SDS011;3251;53.550;9.918;2023-07-02T15:44:59;9.70;;;2.20;;
6436;SDS011;3251;53.550;9.918;2023-07-02T15:47:25;15.47;;;3.50;;
6436;SDS011;3251;53.550;9.918;2023-07-02T15:49:52;16.00;;;2.30;;
6436;SDS011;3251;53.550;9.918;2023-07-02T15:52:19;4.63;;;2.13;;
6436;SDS011;3251;53.550;9.918;2023-07-02T15:54:45;10.60;;;2.80;;
6436;SDS011;3251;53.550;9.918;2023-07-02T15:57:11;9.47;;;2.00;;
6436;SDS011;3251;53.550;9.918;2023-07-02T15:59:37;11.93;;;2.93;;
6436;SDS011;3251;53.550;9.918;2023-07-02T16:02:04;6.10;;;3.07;;
6436;SDS011;3251;53.550;9.918;2023-07-02T16:04:30;7.03;;;2.93;;
6436;SDS011;3251;53.550;9.918;2023-07-02T16:06:56;5.60;;;2.60;;
6436;SDS011;3251;53.550;9.918;2023-07-02T16:09:22;8.60;;;2.60;;
6436;SDS011;3251;53.550;9.918;2023-07-02T16:11:48;6.40;;;3.20;;
6436;SDS011;3251;53.550;9.918;2023-07-02T16:14:15;10.27;;;2.83;;
6436;SDS011;3251;53.550;9.918;2023-07-02T16:16:43;3.50;;;2.10;;
6436;SDS011;3251;53.550;9.918;2023-07-02T16:19:11;11.77;;;2.97;;
6436;SDS011;3251;53.550;9.918;2023-07-02T16:21:38;6.60;;;3.00;;
6436;SDS011;3251;53.550;9.918;2023-07-02T16:27:06;4.60;;;1.90;;
6436;SDS011;3251;53.550;9.918;2023-07-02T16:29:35;7.57;;;2.90;;
6436;SDS011;3251;53.550;9.918;2023-07-02T16:32:01;6.93;;;2.40;;
6436;SDS011;3251;53.550;9.918;2023-07-02T16:34:28;10.87;;;2.80;;
6436;SDS011;3251;53.550;9.918;2023-07-02T16:36:55;24.90;;;5.50;;
6436;SDS011;3251;53.550;9.918;2023-07-02T16:39:21;8.47;;;3.80;;
6436;SDS011;3251;53.550;9.918;2023-07-02T16:41:48;10.83;;;3.63;;
6436;SDS011;3251;53.550;9.918;2023-07-02T16:44:15;14.97;;;3.03;;
6436;SDS011;3251;53.550;9.918;2023-07-02T16:46:41;7.53;;;3.07;;
6436;SDS011;3251;53.550;9.918;2023-07-02T16:49:09;5.50;;;2.93;;
6436;SDS011;3251;53.550;9.918;2023-07-02T16:51:35;10.57;;;2.33;;
6436;SDS011;3251;53.550;9.918;2023-07-02T16:54:05;22.23;;;3.50;;
6436;SDS011;3251;53.550;9.918;2023-07-02T16:56:31;13.43;;;3.77;;
6436;SDS011;3251;53.550;9.918;2023-07-02T16:58:58;10.20;;;2.90;;
6436;SDS011;3251;53.550;9.918;2023-07-02T17:01:24;8.90;;;3.00;;
6436;SDS011;3251;53.550;9.918;2023-07-02T17:03:51;11.00;;;2.77;;
6436;SDS011;3251;53.550;9.918;2023-07-02T17:06:17;16.60;;;3.20;;
6436;SDS011;3251;53.550;9.918;2023-07-02T17:08:44;6.13;;;3.20;;
6436;SDS011;3251;53.550;9.918;2023-07-02T17:11:10;13.53;;;3.57;;
6436;SDS011;3251;53.550;9.918;2023-07-02T17:13:37;9.30;;;3.63;;
6436;SDS011;3251;53.550;9.918;2023-07-02T17:16:03;4.70;;;2.87;;
6436;SDS011;3251;53.550;9.918;2023-07-02T17:18:33;7.27;;;3.17;;
6436;SDS011;3251;53.550;9.918;2023-07-02T17:21:00;19.53;;;3.23;;
6436;SDS011;3251;53.550;9.918;2023-07-02T17:23:26;7.13;;;3.00;;
6436;SDS011;3251;53.550;9.918;2023-07-02T17:25:52;5.00;;;2.50;;
6436;SDS011;3251;53.550;9.918;2023-07-02T17:28:19;7.97;;;3.00;;
6436;SDS011;3251;53.550;9.918;2023-07-02T17:30:45;10.37;;;4.20;;
6436;SDS011;3251;53.550;9.918;2023-07-02T17:33:11;6.97;;;4.70;;
6436;SDS011;3251;53.550;9.918;2023-07-02T17:35:41;7.37;;;3.30;;
6436;SDS011;3251;53.550;9.918;2023-07-02T17:38:07;19.50;;;3.87;;
6436;SDS011;3251;53.550;9.918;2023-07-02T17:40:38;6.13;;;3.50;;
6436;SDS011;3251;53.550;9.918;2023-07-02T17:43:04;6.23;;;3.27;;
6436;SDS011;3251;53.550;9.918;2023-07-02T17:45:30;7.50;;;3.60;;
6436;SDS011;3251;53.550;9.918;2023-07-02T17:47:56;11.23;;;3.10;;
6436;SDS011;3251;53.550;9.918;2023-07-02T17:50:22;7.90;;;3.50;;
6436;SDS011;3251;53.550;9.918;2023-07-02T17:52:49;13.77;;;3.70;;
6436;SDS011;3251;53.550;9.918;2023-07-02T17:55:15;18.33;;;4.60;;
6436;SDS011;3251;53.550;9.918;2023-07-02T17:57:41;9.33;;;3.00;;
6436;SDS011;3251;53.550;9.918;2023-07-02T18:00:10;16.60;;;4.03;;
6436;SDS011;3251;53.550;9.918;2023-07-02T18:02:36;15.20;;;3.20;;
6436;SDS011;3251;53.550;9.918;2023-07-02T18:05:03;14.60;;;3.60;;
6436;SDS011;3251;53.550;9.918;2023-07-02T18:07:30;7.80;;;4.23;;
6436;SDS011;3251;53.550;9.918;2023-07-02T18:09:56;7.57;;;3.53;;
6436;SDS011;3251;53.550;9.918;2023-07-02T18:12:25;10.17;;;3.10;;
6436;SDS011;3251;53.550;9.918;2023-07-02T18:14:53;10.20;;;4.13;;
6436;SDS011;3251;53.550;9.918;2023-07-02T18:17:23;8.80;;;2.97;;
6436;SDS011;3251;53.550;9.918;2023-07-02T18:19:50;7.37;;;4.17;;
6436;SDS011;3251;53.550;9.918;2023-07-02T18:22:18;13.43;;;4.10;;
6436;SDS011;3251;53.550;9.918;2023-07-02T18:24:44;5.07;;;3.80;;
6436;SDS011;3251;53.550;9.918;2023-07-02T18:27:10;10.93;;;3.97;;
6436;SDS011;3251;53.550;9.918;2023-07-02T18:29:38;13.60;;;4.30;;
6436;SDS011;3251;53.550;9.918;2023-07-02T18:32:05;11.77;;;3.77;;
6436;SDS011;3251;53.550;9.918;2023-07-02T18:34:32;10.60;;;4.10;;
6436;SDS011;3251;53.550;9.918;2023-07-02T18:36:58;15.80;;;4.07;;
6436;SDS011;3251;53.550;9.918;2023-07-02T18:39:29;8.03;;;3.20;;
6436;SDS011;3251;53.550;9.918;2023-07-02T18:41:59;8.47;;;4.67;;
6436;SDS011;3251;53.550;9.918;2023-07-02T18:44:26;10.00;;;4.00;;
6436;SDS011;3251;53.550;9.918;2023-07-02T18:46:58;14.87;;;3.80;;
6436;SDS011;3251;53.550;9.918;2023-07-02T18:49:25;7.60;;;3.20;;
6436;SDS011;3251;53.550;9.918;2023-07-02T18:51:52;11.40;;;3.87;;
6436;SDS011;3251;53.550;9.918;2023-07-02T18:54:18;10.10;;;4.57;;
6436;SDS011;3251;53.550;9.918;2023-07-02T18:56:44;10.93;;;3.50;;
6436;SDS011;3251;53.550;9.918;2023-07-02T18:59:11;8.40;;;3.83;;
6436;SDS011;3251;53.550;9.918;2023-07-02T19:01:37;10.47;;;3.37;;
6436;SDS011;3251;53.550;9.918;2023-07-02T19:04:03;11.63;;;4.40;;
6436;SDS011;3251;53.550;9.918;2023-07-02T19:06:29;11.47;;;3.40;;
6436;SDS011;3251;53.550;9.918;2023-07-02T19:08:55;6.63;;;3.57;;
6436;SDS011;3251;53.550;9.918;2023-07-02T19:11:21;12.63;;;3.87;;
6436;SDS011;3251;53.550;9.918;2023-07-02T19:13:48;21.03;;;5.17;;
6436;SDS011;3251;53.550;9.918;2023-07-02T19:16:14;14.70;;;4.43;;
6436;SDS011;3251;53.550;9.918;2023-07-02T19:18:40;7.40;;;3.10;;
6436;SDS011;3251;53.550;9.918;2023-07-02T19:21:07;4.30;;;3.90;;
6436;SDS011;3251;53.550;9.918;2023-07-02T19:23:38;7.97;;;4.23;;
6436;SDS011;3251;53.550;9.918;2023-07-02T19:26:04;7.23;;;4.00;;
6436;SDS011;3251;53.550;9.918;2023-07-02T19:28:30;12.80;;;4.10;;
6436;SDS011;3251;53.550;9.918;2023-07-02T19:31:00;13.70;;;4.17;;
6436;SDS011;3251;53.550;9.918;2023-07-02T19:33:27;7.63;;;3.90;;
6436;SDS011;3251;53.550;9.918;2023-07-02T19:35:53;6.80;;;3.80;;
6436;SDS011;3251;53.550;9.918;2023-07-02T19:38:20;14.00;;;3.87;;
6436;SDS011;3251;53.550;9.918;2023-07-02T19:40:55;6.63;;;3.70;;
6436;SDS011;3251;53.550;9.918;2023-07-02T19:43:23;11.73;;;3.80;;
6436;SDS011;3251;53.550;9.918;2023-07-02T19:45:49;13.73;;;4.03;;
6436;SDS011;3251;53.550;9.918;2023-07-02T19:48:15;9.07;;;3.40;;
6436;SDS011;3251;53.550;9.918;2023-07-02T19:50:41;12.00;;;4.60;;
6436;SDS011;3251;53.550;9.918;2023-07-02T19:53:08;11.90;;;3.90;;
6436;SDS011;3251;53.550;9.918;2023-07-02T19:55:36;8.27;;;4.30;;
6436;SDS011;3251;53.550;9.918;2023-07-02T19:58:04;13.20;;;4.37;;
6436;SDS011;3251;53.550;9.918;2023-07-02T20:00:30;13.10;;;3.87;;
6436;SDS011;3251;53.550;9.918;2023-07-02T20:02:56;11.33;;;4.10;;
6436;SDS011;3251;53.550;9.918;2023-07-02T20:05:22;6.10;;;4.07;;
6436;SDS011;3251;53.550;9.918;2023-07-02T20:07:48;7.90;;;4.70;;
6436;SDS011;3251;53.550;9.918;2023-07-02T20:10:14;8.20;;;3.43;;
6436;SDS011;3251;53.550;9.918;2023-07-02T20:12:40;11.03;;;3.90;;
6436;SDS011;3251;53.550;9.918;2023-07-02T20:15:07;9.37;;;3.90;;
6436;SDS011;3251;53.550;9.918;2023-07-02T20:17:33;9.83;;;3.23;;
6436;SDS011;3251;53.550;9.918;2023-07-02T20:20:01;6.10;;;3.63;;
6436;SDS011;3251;53.550;9.918;2023-07-02T20:22:29;21.47;;;4.40;;
6436;SDS011;3251;53.550;9.918;2023-07-02T20:24:55;12.90;;;3.43;;
6436;SDS011;3251;53.550;9.918;2023-07-02T20:27:23;15.30;;;4.23;;
6436;SDS011;3251;53.550;9.918;2023-07-02T20:29:50;16.90;;;4.00;;
6436;SDS011;3251;53.550;9.918;2023-07-02T20:32:17;5.83;;;3.20;;
6436;SDS011;3251;53.550;9.918;2023-07-02T20:34:44;14.77;;;4.00;;
6436;SDS011;3251;53.550;9.918;2023-07-02T20:37:13;5.27;;;2.77;;
6436;SDS011;3251;53.550;9.918;2023-07-02T20:39:40;11.50;;;3.77;;
6436;SDS011;3251;53.550;9.918;2023-07-02T20:42:07;9.63;;;3.63;;
6436;SDS011;3251;53.550;9.918;2023-07-02T20:44:33;6.07;;;3.10;;
6436;SDS011;3251;53.550;9.918;2023-07-02T20:47:04;8.37;;;2.87;;
6436;SDS011;3251;53.550;9.918;2023-07-02T20:49:30;8.10;;;2.67;;
6436;SDS011;3251;53.550;9.918;2023-07-02T20:51:57;11.33;;;2.40;;
6436;SDS011;3251;53.550;9.918;2023-07-02T20:54:23;8.20;;;3.43;;
6436;SDS011;3251;53.550;9.918;2023-07-02T20:56:49;26.30;;;3.70;;
6436;SDS011;3251;53.550;9.918;2023-07-02T20:59:15;10.93;;;3.60;;
6436;SDS011;3251;53.550;9.918;2023-07-02T21:01:41;8.53;;;3.00;;